sensor_id;sensor_type;location;lat;lon;timestamp;temperature;humidity
55203;DHT22;41077;52.956;6.796;2023-03-01T00:00:46;0.50;99.90
55203;DHT22;41077;52.956;6.796;2023-03-01T00:03:12;0.50;99.90
55203;DHT22;41077;52.956;6.796;2023-03-01T00:05:44;0.50;99.90
55203;DHT22;41077;52.956;6.796;2023-03-01T00:08:11;0.50;99.90
55203;DHT22;41077;52.956;6.796;2023-03-01T00:10:36;0.50;99.90
55203;DHT22;41077;52.956;6.796;2023-03-01T00:13:02;0.40;99.90
55203;DHT22;41077;52.956;6.796;2023-03-01T00:15:31;0.40;99.90
55203;DHT22;41077;52.956;6.796;2023-03-01T00:17:57;0.40;99.90
55203;DHT22;41077;52.956;6.796;2023-03-01T00:20:23;0.40;99.90
55203;DHT22;41077;52.956;6.796;2023-03-01T00:22:48;0.40;99.90
55203;DHT22;41077;52.956;6.796;2023-03-01T00:25:14;0.30;99.90
55203;DHT22;41077;52.956;6.796;2023-03-01T00:27:40;0.40;99.90
55203;DHT22;41077;52.956;6.796;2023-03-01T00:30:06;0.30;99.90
55203;DHT22;41077;52.956;6.796;2023-03-01T00:32:32;0.30;99.90
55203;DHT22;41077;52.956;6.796;2023-03-01T00:34:57;0.30;99.90
55203;DHT22;41077;52.956;6.796;2023-03-01T00:37:23;0.30;99.90
55203;DHT22;41077;52.956;6.796;2023-03-01T00:39:49;0.30;99.90
55203;DHT22;41077;52.956;6.796;2023-03-01T00:42:16;0.30;99.90
55203;DHT22;41077;52.956;6.796;2023-03-01T00:44:42;0.20;99.90
55203;DHT22;41077;52.956;6.796;2023-03-01T00:47:08;0.20;99.90
55203;DHT22;41077;52.956;6.796;2023-03-01T00:49:34;0.20;99.90
55203;DHT22;41077;52.956;6.796;2023-03-01T00:52:00;0.20;99.90
55203;DHT22;41077;52.956;6.796;2023-03-01T00:54:26;0.10;99.90
55203;DHT22;41077;52.956;6.796;2023-03-01T00:56:51;0.20;99.90
55203;DHT22;41077;52.956;6.796;2023-03-01T00:59:17;0.20;99.90
55203;DHT22;41077;52.956;6.796;2023-03-01T01:01:43;0.10;99.90
55203;DHT22;41077;52.956;6.796;2023-03-01T01:04:11;0.10;99.90
55203;DHT22;41077;52.956;6.796;2023-03-01T01:06:39;0.10;99.90
55203;DHT22;41077;52.956;6.796;2023-03-01T01:09:08;0.10;99.90
55203;DHT22;41077;52.956;6.796;2023-03-01T01:11:35;0.20;99.90
55203;DHT22;41077;52.956;6.796;2023-03-01T01:14:04;0.20;99.90
55203;DHT22;41077;52.956;6.796;2023-03-01T01:16:30;0.20;99.90
55203;DHT22;41077;52.956;6.796;2023-03-01T01:18:56;0.20;99.90
55203;DHT22;41077;52.956;6.796;2023-03-01T01:21:23;0.10;99.90
55203;DHT22;41077;52.956;6.796;2023-03-01T01:23:50;0.10;99.90
55203;DHT22;41077;52.956;6.796;2023-03-01T01:26:19;0.10;99.90
55203;DHT22;41077;52.956;6.796;2023-03-01T01:28:46;0.10;99.90
55203;DHT22;41077;52.956;6.796;2023-03-01T01:31:12;0.00;99.90
55203;DHT22;41077;52.956;6.796;2023-03-01T01:33:37;0.00;99.90
55203;DHT22;41077;52.956;6.796;2023-03-01T01:36:05;-0.10;99.90
55203;DHT22;41077;52.956;6.796;2023-03-01T01:38:31;-0.10;99.90
55203;DHT22;41077;52.956;6.796;2023-03-01T01:40:57;-0.20;99.90
55203;DHT22;41077;52.956;6.796;2023-03-01T01:43:29;-0.20;99.90
55203;DHT22;41077;52.956;6.796;2023-03-01T01:45:58;-0.20;99.90
55203;DHT22;41077;52.956;6.796;2023-03-01T01:48:32;-0.20;99.90
55203;DHT22;41077;52.956;6.796;2023-03-01T01:51:09;-0.30;99.90
55203;DHT22;41077;52.956;6.796;2023-03-01T01:53:37;-0.30;99.90
55203;DHT22;41077;52.956;6.796;2023-03-01T01:56:03;-0.30;99.90
55203;DHT22;41077;52.956;6.796;2023-03-01T01:58:31;-0.30;99.90
55203;DHT22;41077;52.956;6.796;2023-03-01T02:00:57;-0.30;99.90
55203;DHT22;41077;52.956;6.796;2023-03-01T02:03:27;-0.30;99.90
55203;DHT22;41077;52.956;6.796;2023-03-01T02:06:07;-0.30;99.90
55203;DHT22;41077;52.956;6.796;2023-03-01T02:08:38;-0.30;99.90
55203;DHT22;41077;52.956;6.796;2023-03-01T02:11:07;-0.30;99.90
55203;DHT22;41077;52.956;6.796;2023-03-01T02:13:34;-0.40;99.90
55203;DHT22;41077;52.956;6.796;2023-03-01T02:16:08;-0.40;99.90
55203;DHT22;41077;52.956;6.796;2023-03-01T02:18:33;-0.40;99.90
55203;DHT22;41077;52.956;6.796;2023-03-01T02:23:37;-0.50;99.90
55203;DHT22;41077;52.956;6.796;2023-03-01T02:26:18;-0.50;99.90
55203;DHT22;41077;52.956;6.796;2023-03-01T02:28:46;-0.50;99.90
55203;DHT22;41077;52.956;6.796;2023-03-01T02:31:17;-0.50;99.90
55203;DHT22;41077;52.956;6.796;2023-03-01T02:34:03;-0.50;99.90
55203;DHT22;41077;52.956;6.796;2023-03-01T02:36:47;-0.50;99.90
55203;DHT22;41077;52.956;6.796;2023-03-01T02:39:17;-0.50;99.90
55203;DHT22;41077;52.956;6.796;2023-03-01T02:41:50;-0.50;99.90
55203;DHT22;41077;52.956;6.796;2023-03-01T02:44:17;-0.50;99.90
55203;DHT22;41077;52.956;6.796;2023-03-01T02:46:47;-0.60;99.90
55203;DHT22;41077;52.956;6.796;2023-03-01T02:49:33;-0.60;99.90
55203;DHT22;41077;52.956;6.796;2023-03-01T02:54:54;-0.50;99.90
55203;DHT22;41077;52.956;6.796;2023-03-01T02:57:22;-0.60;99.90
55203;DHT22;41077;52.956;6.796;2023-03-01T02:59:50;-0.60;99.90
55203;DHT22;41077;52.956;6.796;2023-03-01T03:02:23;-0.60;99.90
55203;DHT22;41077;52.956;6.796;2023-03-01T03:05:14;-0.70;99.90
55203;DHT22;41077;52.956;6.796;2023-03-01T03:07:42;-0.80;99.90
55203;DHT22;41077;52.956;6.796;2023-03-01T03:10:15;-0.80;99.90
55203;DHT22;41077;52.956;6.796;2023-03-01T03:12:41;-0.80;99.90
55203;DHT22;41077;52.956;6.796;2023-03-01T03:15:08;-0.80;99.90
55203;DHT22;41077;52.956;6.796;2023-03-01T03:17:36;-0.90;99.90
55203;DHT22;41077;52.956;6.796;2023-03-01T03:20:04;-0.90;99.90
55203;DHT22;41077;52.956;6.796;2023-03-01T03:22:31;-0.90;99.90
55203;DHT22;41077;52.956;6.796;2023-03-01T03:24:56;-1.00;99.90
55203;DHT22;41077;52.956;6.796;2023-03-01T03:27:22;-0.90;99.90
55203;DHT22;41077;52.956;6.796;2023-03-01T03:29:48;-1.00;99.90
55203;DHT22;41077;52.956;6.796;2023-03-01T03:32:13;-1.00;99.90
55203;DHT22;41077;52.956;6.796;2023-03-01T03:34:39;-0.90;99.90
55203;DHT22;41077;52.956;6.796;2023-03-01T03:37:05;-1.00;99.90
55203;DHT22;41077;52.956;6.796;2023-03-01T03:39:50;-0.90;99.90
55203;DHT22;41077;52.956;6.796;2023-03-01T03:42:21;-0.90;99.90
55203;DHT22;41077;52.956;6.796;2023-03-01T03:44:48;-0.90;99.90
55203;DHT22;41077;52.956;6.796;2023-03-01T03:47:13;-0.80;99.90
55203;DHT22;41077;52.956;6.796;2023-03-01T03:49:39;-0.80;99.90
55203;DHT22;41077;52.956;6.796;2023-03-01T03:52:05;-0.80;99.90
55203;DHT22;41077;52.956;6.796;2023-03-01T03:54:39;-0.80;99.90
55203;DHT22;41077;52.956;6.796;2023-03-01T03:57:06;-0.80;99.90
55203;DHT22;41077;52.956;6.796;2023-03-01T03:59:32;-0.80;99.90
55203;DHT22;41077;52.956;6.796;2023-03-01T04:01:57;-0.80;99.90
55203;DHT22;41077;52.956;6.796;2023-03-01T04:04:23;-0.80;99.90
55203;DHT22;41077;52.956;6.796;2023-03-01T04:06:49;-0.80;99.90
55203;DHT22;41077;52.956;6.796;2023-03-01T04:09:14;-0.80;99.90
55203;DHT22;41077;52.956;6.796;2023-03-01T04:11:40;-0.90;99.90
55203;DHT22;41077;52.956;6.796;2023-03-01T04:14:06;-1.00;99.90
55203;DHT22;41077;52.956;6.796;2023-03-01T04:16:32;-1.10;99.90
55203;DHT22;41077;52.956;6.796;2023-03-01T04:18:57;-1.20;99.90
55203;DHT22;41077;52.956;6.796;2023-03-01T04:21:25;-1.20;99.90
55203;DHT22;41077;52.956;6.796;2023-03-01T04:23:50;-1.30;99.90
55203;DHT22;41077;52.956;6.796;2023-03-01T04:26:18;-1.40;99.90
55203;DHT22;41077;52.956;6.796;2023-03-01T04:28:45;-1.40;99.90
55203;DHT22;41077;52.956;6.796;2023-03-01T04:31:20;-1.40;99.90
55203;DHT22;41077;52.956;6.796;2023-03-01T04:33:52;-1.40;99.90
55203;DHT22;41077;52.956;6.796;2023-03-01T04:36:19;-1.30;99.90
55203;DHT22;41077;52.956;6.796;2023-03-01T04:38:45;-1.40;99.90
55203;DHT22;41077;52.956;6.796;2023-03-01T04:41:16;-1.40;99.90
55203;DHT22;41077;52.956;6.796;2023-03-01T04:43:44;-1.30;99.90
55203;DHT22;41077;52.956;6.796;2023-03-01T04:46:15;-1.30;99.90
55203;DHT22;41077;52.956;6.796;2023-03-01T04:48:42;-1.30;99.90
55203;DHT22;41077;52.956;6.796;2023-03-01T04:51:08;-1.30;99.90
55203;DHT22;41077;52.956;6.796;2023-03-01T04:53:34;-1.20;99.90
55203;DHT22;41077;52.956;6.796;2023-03-01T04:56:02;-1.30;99.90
55203;DHT22;41077;52.956;6.796;2023-03-01T04:58:28;-1.30;99.90
55203;DHT22;41077;52.956;6.796;2023-03-01T05:00:54;-1.30;99.90
55203;DHT22;41077;52.956;6.796;2023-03-01T05:03:21;-1.30;99.90
55203;DHT22;41077;52.956;6.796;2023-03-01T05:05:49;-1.30;99.90
55203;DHT22;41077;52.956;6.796;2023-03-01T05:08:16;-1.30;99.90
55203;DHT22;41077;52.956;6.796;2023-03-01T05:10:51;-1.30;99.90
55203;DHT22;41077;52.956;6.796;2023-03-01T05:13:18;-1.30;99.90
55203;DHT22;41077;52.956;6.796;2023-03-01T05:16:00;-1.30;99.90
55203;DHT22;41077;52.956;6.796;2023-03-01T05:18:28;-1.20;99.90
55203;DHT22;41077;52.956;6.796;2023-03-01T05:21:01;-1.20;99.90
55203;DHT22;41077;52.956;6.796;2023-03-01T05:23:29;-1.30;99.90
55203;DHT22;41077;52.956;6.796;2023-03-01T05:25:58;-1.30;99.90
55203;DHT22;41077;52.956;6.796;2023-03-01T05:28:25;-1.30;99.90
55203;DHT22;41077;52.956;6.796;2023-03-01T05:30:52;-1.40;99.90
55203;DHT22;41077;52.956;6.796;2023-03-01T05:33:17;-1.40;99.90
55203;DHT22;41077;52.956;6.796;2023-03-01T05:35:45;-1.50;99.90
55203;DHT22;41077;52.956;6.796;2023-03-01T05:38:15;-1.50;99.90
55203;DHT22;41077;52.956;6.796;2023-03-01T05:40:43;-1.50;99.90
55203;DHT22;41077;52.956;6.796;2023-03-01T05:43:09;-1.50;99.90
55203;DHT22;41077;52.956;6.796;2023-03-01T05:45:37;-1.50;99.90
55203;DHT22;41077;52.956;6.796;2023-03-01T05:48:04;-1.50;99.90
55203;DHT22;41077;52.956;6.796;2023-03-01T05:50:36;-1.50;99.90
55203;DHT22;41077;52.956;6.796;2023-03-01T05:53:13;-1.50;99.90
55203;DHT22;41077;52.956;6.796;2023-03-01T05:55:39;-1.50;99.90
55203;DHT22;41077;52.956;6.796;2023-03-01T05:58:07;-1.50;99.90
55203;DHT22;41077;52.956;6.796;2023-03-01T06:00:34;-1.50;99.90
55203;DHT22;41077;52.956;6.796;2023-03-01T06:03:00;-1.50;99.90
55203;DHT22;41077;52.956;6.796;2023-03-01T06:05:27;-1.50;99.90
55203;DHT22;41077;52.956;6.796;2023-03-01T06:07:53;-1.50;99.90
55203;DHT22;41077;52.956;6.796;2023-03-01T06:10:20;-1.60;99.90
55203;DHT22;41077;52.956;6.796;2023-03-01T06:12:47;-1.60;99.90
55203;DHT22;41077;52.956;6.796;2023-03-01T06:15:14;-1.60;99.90
55203;DHT22;41077;52.956;6.796;2023-03-01T06:17:44;-1.70;99.90
55203;DHT22;41077;52.956;6.796;2023-03-01T06:20:15;-1.70;99.90
55203;DHT22;41077;52.956;6.796;2023-03-01T06:22:43;-1.70;99.90
55203;DHT22;41077;52.956;6.796;2023-03-01T06:25:09;-1.70;99.90
55203;DHT22;41077;52.956;6.796;2023-03-01T06:27:36;-1.70;99.90
55203;DHT22;41077;52.956;6.796;2023-03-01T06:30:02;-1.70;99.90
55203;DHT22;41077;52.956;6.796;2023-03-01T06:32:28;-1.70;99.90
55203;DHT22;41077;52.956;6.796;2023-03-01T06:34:54;-1.70;99.90
55203;DHT22;41077;52.956;6.796;2023-03-01T06:37:19;-1.70;99.90
55203;DHT22;41077;52.956;6.796;2023-03-01T06:39:45;-1.70;99.90
55203;DHT22;41077;52.956;6.796;2023-03-01T06:42:11;-1.70;99.90
55203;DHT22;41077;52.956;6.796;2023-03-01T06:44:37;-1.70;99.90
55203;DHT22;41077;52.956;6.796;2023-03-01T06:47:03;-1.60;99.90
55203;DHT22;41077;52.956;6.796;2023-03-01T06:49:29;-1.60;99.90
55203;DHT22;41077;52.956;6.796;2023-03-01T06:51:55;-1.60;99.90
55203;DHT22;41077;52.956;6.796;2023-03-01T06:54:21;-1.60;99.90
55203;DHT22;41077;52.956;6.796;2023-03-01T06:56:48;-1.50;99.90
55203;DHT22;41077;52.956;6.796;2023-03-01T06:59:15;-1.50;99.90
55203;DHT22;41077;52.956;6.796;2023-03-01T07:01:40;-1.40;99.90
55203;DHT22;41077;52.956;6.796;2023-03-01T07:04:06;-1.40;99.90
55203;DHT22;41077;52.956;6.796;2023-03-01T07:06:32;-1.30;99.90
55203;DHT22;41077;52.956;6.796;2023-03-01T07:08:58;-1.30;99.90
55203;DHT22;41077;52.956;6.796;2023-03-01T07:11:23;-1.30;99.90
55203;DHT22;41077;52.956;6.796;2023-03-01T07:13:49;-1.20;99.90
55203;DHT22;41077;52.956;6.796;2023-03-01T07:16:15;-1.10;99.90
55203;DHT22;41077;52.956;6.796;2023-03-01T07:18:41;-1.10;99.90
55203;DHT22;41077;52.956;6.796;2023-03-01T07:21:08;-1.10;99.90
55203;DHT22;41077;52.956;6.796;2023-03-01T07:23:34;-1.00;99.90
55203;DHT22;41077;52.956;6.796;2023-03-01T07:26:00;-0.90;99.90
55203;DHT22;41077;52.956;6.796;2023-03-01T07:28:26;-0.90;99.90
55203;DHT22;41077;52.956;6.796;2023-03-01T07:30:52;-0.80;99.90
55203;DHT22;41077;52.956;6.796;2023-03-01T07:33:18;-0.70;99.90
55203;DHT22;41077;52.956;6.796;2023-03-01T07:35:44;-0.60;99.90
55203;DHT22;41077;52.956;6.796;2023-03-01T07:38:10;-0.60;99.90
55203;DHT22;41077;52.956;6.796;2023-03-01T07:40:36;-0.50;99.90
55203;DHT22;41077;52.956;6.796;2023-03-01T07:43:01;-0.40;99.90
55203;DHT22;41077;52.956;6.796;2023-03-01T07:45:27;-0.30;99.90
55203;DHT22;41077;52.956;6.796;2023-03-01T07:47:54;-0.20;99.90
55203;DHT22;41077;52.956;6.796;2023-03-01T07:50:20;-0.20;99.90
55203;DHT22;41077;52.956;6.796;2023-03-01T07:52:47;-0.20;99.90
55203;DHT22;41077;52.956;6.796;2023-03-01T07:55:14;-0.10;99.90
55203;DHT22;41077;52.956;6.796;2023-03-01T07:57:40;-0.10;99.90
55203;DHT22;41077;52.956;6.796;2023-03-01T08:00:06;0.00;99.90
55203;DHT22;41077;52.956;6.796;2023-03-01T08:02:32;0.10;99.90
55203;DHT22;41077;52.956;6.796;2023-03-01T08:04:58;0.10;99.90
55203;DHT22;41077;52.956;6.796;2023-03-01T08:07:24;0.20;99.90
55203;DHT22;41077;52.956;6.796;2023-03-01T08:09:49;0.30;99.90
55203;DHT22;41077;52.956;6.796;2023-03-01T08:12:15;0.40;99.90
55203;DHT22;41077;52.956;6.796;2023-03-01T08:14:43;0.50;99.90
55203;DHT22;41077;52.956;6.796;2023-03-01T08:17:09;0.60;99.90
55203;DHT22;41077;52.956;6.796;2023-03-01T08:19:35;0.70;99.90
55203;DHT22;41077;52.956;6.796;2023-03-01T08:22:03;0.70;99.90
55203;DHT22;41077;52.956;6.796;2023-03-01T08:24:29;0.80;99.90
55203;DHT22;41077;52.956;6.796;2023-03-01T08:26:55;0.80;99.90
55203;DHT22;41077;52.956;6.796;2023-03-01T08:29:21;0.90;99.90
55203;DHT22;41077;52.956;6.796;2023-03-01T08:31:48;1.00;99.90
55203;DHT22;41077;52.956;6.796;2023-03-01T08:34:16;1.10;99.90
55203;DHT22;41077;52.956;6.796;2023-03-01T08:36:45;1.10;99.90
55203;DHT22;41077;52.956;6.796;2023-03-01T08:39:13;1.20;99.90
55203;DHT22;41077;52.956;6.796;2023-03-01T08:41:39;1.20;99.90
55203;DHT22;41077;52.956;6.796;2023-03-01T08:44:05;1.30;99.90
55203;DHT22;41077;52.956;6.796;2023-03-01T08:46:34;1.40;99.90
55203;DHT22;41077;52.956;6.796;2023-03-01T08:49:04;1.40;99.90
55203;DHT22;41077;52.956;6.796;2023-03-01T08:51:30;1.50;99.90
55203;DHT22;41077;52.956;6.796;2023-03-01T08:54:20;1.60;99.90
55203;DHT22;41077;52.956;6.796;2023-03-01T08:56:46;1.60;99.90
55203;DHT22;41077;52.956;6.796;2023-03-01T08:59:13;1.70;99.90
55203;DHT22;41077;52.956;6.796;2023-03-01T09:01:39;1.90;99.90
55203;DHT22;41077;52.956;6.796;2023-03-01T09:04:05;1.90;99.90
55203;DHT22;41077;52.956;6.796;2023-03-01T09:06:32;2.00;99.90
55203;DHT22;41077;52.956;6.796;2023-03-01T09:08:58;2.10;99.90
55203;DHT22;41077;52.956;6.796;2023-03-01T09:11:24;2.20;99.90
55203;DHT22;41077;52.956;6.796;2023-03-01T09:13:50;2.20;99.90
55203;DHT22;41077;52.956;6.796;2023-03-01T09:16:18;2.20;99.90
55203;DHT22;41077;52.956;6.796;2023-03-01T09:18:45;2.30;99.90
55203;DHT22;41077;52.956;6.796;2023-03-01T09:21:15;2.40;99.90
55203;DHT22;41077;52.956;6.796;2023-03-01T09:23:43;2.50;99.90
55203;DHT22;41077;52.956;6.796;2023-03-01T09:26:15;2.50;99.90
55203;DHT22;41077;52.956;6.796;2023-03-01T09:28:53;2.50;99.90
55203;DHT22;41077;52.956;6.796;2023-03-01T09:31:21;2.60;99.90
55203;DHT22;41077;52.956;6.796;2023-03-01T09:33:48;2.60;99.90
55203;DHT22;41077;52.956;6.796;2023-03-01T09:36:20;2.70;99.90
55203;DHT22;41077;52.956;6.796;2023-03-01T09:38:47;2.70;99.90
55203;DHT22;41077;52.956;6.796;2023-03-01T09:46:51;2.90;99.90
55203;DHT22;41077;52.956;6.796;2023-03-01T09:49:21;3.00;99.90
55203;DHT22;41077;52.956;6.796;2023-03-01T09:51:58;3.00;99.90
55203;DHT22;41077;52.956;6.796;2023-03-01T09:54:24;3.10;99.90
55203;DHT22;41077;52.956;6.796;2023-03-01T09:57:56;3.20;99.90
55203;DHT22;41077;52.956;6.796;2023-03-01T10:00:23;3.30;99.90
55203;DHT22;41077;52.956;6.796;2023-03-01T10:05:58;3.50;99.90
55203;DHT22;41077;52.956;6.796;2023-03-01T10:11:26;3.80;99.90
55203;DHT22;41077;52.956;6.796;2023-03-01T10:13:58;3.80;99.90
55203;DHT22;41077;52.956;6.796;2023-03-01T10:19:32;4.00;99.90
55203;DHT22;41077;52.956;6.796;2023-03-01T10:22:29;4.20;99.90
55203;DHT22;41077;52.956;6.796;2023-03-01T10:25:02;4.30;99.90
55203;DHT22;41077;52.956;6.796;2023-03-01T10:27:51;4.40;99.90
55203;DHT22;41077;52.956;6.796;2023-03-01T10:30:21;4.50;99.90
55203;DHT22;41077;52.956;6.796;2023-03-01T10:32:51;4.50;99.90
55203;DHT22;41077;52.956;6.796;2023-03-01T10:35:21;4.60;99.90
55203;DHT22;41077;52.956;6.796;2023-03-01T10:38:11;4.60;99.90
55203;DHT22;41077;52.956;6.796;2023-03-01T10:40:51;4.70;99.90
55203;DHT22;41077;52.956;6.796;2023-03-01T10:43:17;4.80;99.90
55203;DHT22;41077;52.956;6.796;2023-03-01T10:45:43;4.80;99.90
55203;DHT22;41077;52.956;6.796;2023-03-01T10:48:17;4.90;99.90
55203;DHT22;41077;52.956;6.796;2023-03-01T10:51:05;4.90;99.90
55203;DHT22;41077;52.956;6.796;2023-03-01T10:53:40;5.00;99.90
55203;DHT22;41077;52.956;6.796;2023-03-01T10:56:08;5.10;99.90
55203;DHT22;41077;52.956;6.796;2023-03-01T10:58:36;5.20;99.90
55203;DHT22;41077;52.956;6.796;2023-03-01T11:01:05;5.20;99.90
55203;DHT22;41077;52.956;6.796;2023-03-01T11:03:36;5.30;99.90
55203;DHT22;41077;52.956;6.796;2023-03-01T11:11:23;5.50;99.90
55203;DHT22;41077;52.956;6.796;2023-03-01T11:16:43;5.60;99.90
55203;DHT22;41077;52.956;6.796;2023-03-01T11:22:02;5.70;99.90
55203;DHT22;41077;52.956;6.796;2023-03-01T11:24:39;5.80;99.90
55203;DHT22;41077;52.956;6.796;2023-03-01T11:27:20;5.90;99.90
55203;DHT22;41077;52.956;6.796;2023-03-01T11:32:25;6.10;99.90
55203;DHT22;41077;52.956;6.796;2023-03-01T11:35:05;6.10;99.90
55203;DHT22;41077;52.956;6.796;2023-03-01T11:37:40;6.30;99.90
55203;DHT22;41077;52.956;6.796;2023-03-01T11:40:23;6.30;99.90
55203;DHT22;41077;52.956;6.796;2023-03-01T11:50:48;6.40;99.90
55203;DHT22;41077;52.956;6.796;2023-03-01T12:07:46;6.90;99.90
55203;DHT22;41077;52.956;6.796;2023-03-01T12:10:27;6.90;99.90
55203;DHT22;41077;52.956;6.796;2023-03-01T12:29:14;7.10;99.90
55203;DHT22;41077;52.956;6.796;2023-03-01T12:42:41;7.40;99.90
55203;DHT22;41077;52.956;6.796;2023-03-01T12:48:20;7.50;99.90
55203;DHT22;41077;52.956;6.796;2023-03-01T12:50:53;7.60;99.90
55203;DHT22;41077;52.956;6.796;2023-03-01T12:53:26;7.70;99.90
55203;DHT22;41077;52.956;6.796;2023-03-01T12:55:56;7.90;99.90
55203;DHT22;41077;52.956;6.796;2023-03-01T12:58:24;8.40;99.90
55203;DHT22;41077;52.956;6.796;2023-03-01T13:01:17;8.80;99.90
55203;DHT22;41077;52.956;6.796;2023-03-01T13:04:32;9.10;99.90
55203;DHT22;41077;52.956;6.796;2023-03-01T13:07:16;9.10;99.90
55203;DHT22;41077;52.956;6.796;2023-03-01T13:10:04;8.90;99.90
55203;DHT22;41077;52.956;6.796;2023-03-01T13:17:48;9.20;99.90
55203;DHT22;41077;52.956;6.796;2023-03-01T13:20:16;9.20;99.90
55203;DHT22;41077;52.956;6.796;2023-03-01T13:22:43;9.10;99.90
55203;DHT22;41077;52.956;6.796;2023-03-01T13:25:17;9.40;99.90
55203;DHT22;41077;52.956;6.796;2023-03-01T13:27:44;9.80;99.90
55203;DHT22;41077;52.956;6.796;2023-03-01T13:35:49;10.30;99.90
55203;DHT22;41077;52.956;6.796;2023-03-01T13:41:03;9.90;99.90
55203;DHT22;41077;52.956;6.796;2023-03-01T13:43:32;9.90;99.90
55203;DHT22;41077;52.956;6.796;2023-03-01T13:45:59;9.80;99.90
55203;DHT22;41077;52.956;6.796;2023-03-01T13:48:28;9.80;99.90
55203;DHT22;41077;52.956;6.796;2023-03-01T13:50:58;10.00;99.90
55203;DHT22;41077;52.956;6.796;2023-03-01T13:54:02;10.20;99.90
55203;DHT22;41077;52.956;6.796;2023-03-01T13:56:27;10.20;99.90
55203;DHT22;41077;52.956;6.796;2023-03-01T13:59:04;10.40;99.90
55203;DHT22;41077;52.956;6.796;2023-03-01T14:01:33;10.90;99.90
55203;DHT22;41077;52.956;6.796;2023-03-01T14:04:00;11.30;99.90
55203;DHT22;41077;52.956;6.796;2023-03-01T14:06:31;11.60;99.90
55203;DHT22;41077;52.956;6.796;2023-03-01T14:09:16;11.70;99.90
55203;DHT22;41077;52.956;6.796;2023-03-01T14:17:49;11.00;98.70
55203;DHT22;41077;52.956;6.796;2023-03-01T14:20:27;10.80;98.60
55203;DHT22;41077;52.956;6.796;2023-03-01T14:22:55;10.80;99.40
55203;DHT22;41077;52.956;6.796;2023-03-01T14:25:25;10.90;99.70
55203;DHT22;41077;52.956;6.796;2023-03-01T14:28:02;11.00;99.40
55203;DHT22;41077;52.956;6.796;2023-03-01T14:30:42;11.00;99.30
55203;DHT22;41077;52.956;6.796;2023-03-01T14:33:26;11.20;98.20
55203;DHT22;41077;52.956;6.796;2023-03-01T14:36:12;11.40;97.50
55203;DHT22;41077;52.956;6.796;2023-03-01T14:41:10;11.60;98.00
55203;DHT22;41077;52.956;6.796;2023-03-01T14:43:46;11.40;97.30
55203;DHT22;41077;52.956;6.796;2023-03-01T14:46:22;11.30;97.40
55203;DHT22;41077;52.956;6.796;2023-03-01T14:48:55;11.10;97.90
55203;DHT22;41077;52.956;6.796;2023-03-01T14:51:22;11.40;97.90
55203;DHT22;41077;52.956;6.796;2023-03-01T14:53:48;11.60;98.40
55203;DHT22;41077;52.956;6.796;2023-03-01T14:56:16;11.60;98.20
55203;DHT22;41077;52.956;6.796;2023-03-01T14:58:46;11.30;98.00
55203;DHT22;41077;52.956;6.796;2023-03-01T15:01:16;11.40;98.40
55203;DHT22;41077;52.956;6.796;2023-03-01T15:03:45;11.90;97.80
55203;DHT22;41077;52.956;6.796;2023-03-01T15:06:15;12.30;97.10
55203;DHT22;41077;52.956;6.796;2023-03-01T15:08:46;12.60;96.90
55203;DHT22;41077;52.956;6.796;2023-03-01T15:11:29;12.90;95.40
55203;DHT22;41077;52.956;6.796;2023-03-01T15:13:55;12.90;92.70
55203;DHT22;41077;52.956;6.796;2023-03-01T15:16:30;13.20;95.40
55203;DHT22;41077;52.956;6.796;2023-03-01T15:18:57;13.40;94.30
55203;DHT22;41077;52.956;6.796;2023-03-01T15:21:25;13.40;92.00
55203;DHT22;41077;52.956;6.796;2023-03-01T15:24:01;13.60;93.80
55203;DHT22;41077;52.956;6.796;2023-03-01T15:26:31;13.50;92.70
55203;DHT22;41077;52.956;6.796;2023-03-01T15:28:59;13.40;93.50
55203;DHT22;41077;52.956;6.796;2023-03-01T15:31:27;13.60;93.70
55203;DHT22;41077;52.956;6.796;2023-03-01T15:34:08;13.70;93.50
55203;DHT22;41077;52.956;6.796;2023-03-01T15:36:45;13.80;91.60
55203;DHT22;41077;52.956;6.796;2023-03-01T15:54:39;14.00;91.00
55203;DHT22;41077;52.956;6.796;2023-03-01T16:11:51;14.10;91.30
55203;DHT22;41077;52.956;6.796;2023-03-01T16:14:17;12.90;92.30
55203;DHT22;41077;52.956;6.796;2023-03-01T16:16:44;12.80;93.00
55203;DHT22;41077;52.956;6.796;2023-03-01T16:19:10;12.70;93.10
55203;DHT22;41077;52.956;6.796;2023-03-01T16:21:35;12.50;93.30
55203;DHT22;41077;52.956;6.796;2023-03-01T16:24:01;12.20;93.50
55203;DHT22;41077;52.956;6.796;2023-03-01T16:26:27;11.90;94.00
55203;DHT22;41077;52.956;6.796;2023-03-01T16:28:57;11.30;94.30
55203;DHT22;41077;52.956;6.796;2023-03-01T16:31:24;10.80;95.00
55203;DHT22;41077;52.956;6.796;2023-03-01T16:33:53;10.30;96.20
55203;DHT22;41077;52.956;6.796;2023-03-01T16:36:21;10.00;96.80
55203;DHT22;41077;52.956;6.796;2023-03-01T16:38:49;9.60;98.10
55203;DHT22;41077;52.956;6.796;2023-03-01T16:41:17;9.40;98.70
55203;DHT22;41077;52.956;6.796;2023-03-01T16:43:44;9.10;99.70
55203;DHT22;41077;52.956;6.796;2023-03-01T16:46:20;8.90;99.90
55203;DHT22;41077;52.956;6.796;2023-03-01T16:48:47;8.70;99.90
55203;DHT22;41077;52.956;6.796;2023-03-01T16:51:13;8.50;99.90
55203;DHT22;41077;52.956;6.796;2023-03-01T16:53:39;8.30;99.90
55203;DHT22;41077;52.956;6.796;2023-03-01T16:56:08;8.20;99.90
55203;DHT22;41077;52.956;6.796;2023-03-01T16:58:35;8.00;99.90
55203;DHT22;41077;52.956;6.796;2023-03-01T17:03:31;7.70;99.90
55203;DHT22;41077;52.956;6.796;2023-03-01T17:05:56;7.60;99.90
55203;DHT22;41077;52.956;6.796;2023-03-01T17:08:22;7.50;99.90
55203;DHT22;41077;52.956;6.796;2023-03-01T17:10:48;7.40;99.90
55203;DHT22;41077;52.956;6.796;2023-03-01T17:13:14;7.20;99.90
55203;DHT22;41077;52.956;6.796;2023-03-01T17:15:40;7.10;99.90
55203;DHT22;41077;52.956;6.796;2023-03-01T17:18:07;7.00;99.90
55203;DHT22;41077;52.956;6.796;2023-03-01T17:20:32;6.90;99.90
55203;DHT22;41077;52.956;6.796;2023-03-01T17:22:58;6.80;99.90
55203;DHT22;41077;52.956;6.796;2023-03-01T17:25:24;6.70;99.90
55203;DHT22;41077;52.956;6.796;2023-03-01T17:27:49;6.60;99.90
55203;DHT22;41077;52.956;6.796;2023-03-01T17:30:15;6.60;99.90
55203;DHT22;41077;52.956;6.796;2023-03-01T17:32:41;6.50;99.90
55203;DHT22;41077;52.956;6.796;2023-03-01T17:35:08;6.40;99.90
55203;DHT22;41077;52.956;6.796;2023-03-01T17:37:36;6.30;99.90
55203;DHT22;41077;52.956;6.796;2023-03-01T17:40:04;6.20;99.90
55203;DHT22;41077;52.956;6.796;2023-03-01T17:42:31;6.20;99.90
55203;DHT22;41077;52.956;6.796;2023-03-01T17:44:56;6.10;99.90
55203;DHT22;41077;52.956;6.796;2023-03-01T17:47:23;6.00;99.90
55203;DHT22;41077;52.956;6.796;2023-03-01T17:49:49;6.00;99.90
55203;DHT22;41077;52.956;6.796;2023-03-01T17:52:14;5.90;99.90
55203;DHT22;41077;52.956;6.796;2023-03-01T17:54:40;5.90;99.90
55203;DHT22;41077;52.956;6.796;2023-03-01T17:57:06;5.90;99.90
55203;DHT22;41077;52.956;6.796;2023-03-01T17:59:35;5.80;99.90
55203;DHT22;41077;52.956;6.796;2023-03-01T18:02:01;5.80;99.90
55203;DHT22;41077;52.956;6.796;2023-03-01T18:04:28;5.70;99.90
55203;DHT22;41077;52.956;6.796;2023-03-01T18:06:53;5.70;99.90
55203;DHT22;41077;52.956;6.796;2023-03-01T18:09:20;5.70;99.90
55203;DHT22;41077;52.956;6.796;2023-03-01T18:11:46;5.60;99.90